createdAt,value
2018-08-06T00:00:23.647Z,2.30
2018-08-06T00:02:52.082Z,2.53
2018-08-06T00:05:20.544Z,2.40
2018-08-06T00:07:49.095Z,2.57
2018-08-06T00:10:19.309Z,2.30
2018-08-06T00:12:47.759Z,2.30
2018-08-06T00:15:16.524Z,2.20
2018-08-06T00:17:45.133Z,2.40
2018-08-06T00:20:14.403Z,2.30
2018-08-06T00:22:43.201Z,2.00
2018-08-06T00:25:13.000Z,2.40
2018-08-06T00:27:42.185Z,2.30
2018-08-06T00:30:14.964Z,2.40
2018-08-06T00:32:44.382Z,2.30
2018-08-06T00:35:13.530Z,2.30
2018-08-06T00:37:42.040Z,2.20
2018-08-06T00:40:16.748Z,2.17
2018-08-06T00:42:45.743Z,2.53
2018-08-06T00:45:16.207Z,2.60
2018-08-06T00:47:45.296Z,2.43
2018-08-06T00:50:13.808Z,2.80
2018-08-06T00:52:42.544Z,2.57
2018-08-06T00:55:15.076Z,2.73
2018-08-06T00:57:43.622Z,2.87
2018-08-06T01:00:14.765Z,2.70
2018-08-06T01:02:43.458Z,2.73
2018-08-06T01:05:13.224Z,2.60
2018-08-06T01:07:42.225Z,2.67
2018-08-06T01:10:13.909Z,2.83
2018-08-06T01:12:42.548Z,3.17
2018-08-06T01:15:12.998Z,2.80
2018-08-06T01:17:41.659Z,2.77
2018-08-06T01:20:10.556Z,3.00
2018-08-06T01:22:39.099Z,3.40
2018-08-06T01:25:07.741Z,2.70
2018-08-06T01:27:36.942Z,2.80
2018-08-06T01:30:06.366Z,2.80
2018-08-06T01:32:34.998Z,3.00
2018-08-06T01:35:03.579Z,3.33
2018-08-06T01:37:32.060Z,3.00
2018-08-06T01:40:00.615Z,2.70
2018-08-06T01:42:29.158Z,3.40
2018-08-06T01:44:57.740Z,2.93
2018-08-06T01:47:26.282Z,2.97
2018-08-06T01:49:54.886Z,2.97
2018-08-06T01:52:23.547Z,3.23
2018-08-06T01:54:52.130Z,3.20
2018-08-06T01:57:20.415Z,3.20
2018-08-06T01:59:49.039Z,3.20
2018-08-06T02:02:17.610Z,3.23
2018-08-06T02:04:46.109Z,3.50
2018-08-06T02:07:14.621Z,2.97
2018-08-06T02:09:43.145Z,3.43
2018-08-06T02:12:11.672Z,3.27
2018-08-06T02:14:40.183Z,3.20
2018-08-06T02:17:08.750Z,3.00
2018-08-06T02:19:37.219Z,3.63
2018-08-06T02:22:05.754Z,3.63
2018-08-06T02:24:34.269Z,3.40
2018-08-06T02:27:02.862Z,3.57
2018-08-06T02:29:31.045Z,3.20
2018-08-06T02:31:59.220Z,3.27
2018-08-06T02:34:27.731Z,3.83
2018-08-06T02:36:56.192Z,3.60
2018-08-06T02:39:24.717Z,3.60
2018-08-06T02:41:53.252Z,3.33
2018-08-06T02:44:21.809Z,3.73
2018-08-06T02:46:50.429Z,3.13
2018-08-06T02:49:18.950Z,3.40
2018-08-06T02:51:47.581Z,4.20
2018-08-06T02:54:15.736Z,3.53
2018-08-06T02:56:44.319Z,3.93
2018-08-06T02:59:12.845Z,3.97
2018-08-06T03:01:41.393Z,3.70
2018-08-06T03:04:09.886Z,3.43
2018-08-06T03:06:38.391Z,4.10
2018-08-06T03:09:09.657Z,3.90
2018-08-06T03:11:38.421Z,3.70
2018-08-06T03:14:06.953Z,3.90
2018-08-06T03:16:35.513Z,3.73
2018-08-06T03:19:04.000Z,3.30
2018-08-06T03:21:32.454Z,3.80
2018-08-06T03:24:00.967Z,4.13
2018-08-06T03:26:29.588Z,3.90
2018-08-06T03:28:58.119Z,4.27
2018-08-06T03:31:26.641Z,4.30
2018-08-06T03:33:55.696Z,4.17
2018-08-06T03:36:24.137Z,4.03
2018-08-06T03:38:52.639Z,4.43
2018-08-06T03:41:21.419Z,4.27
2018-08-06T03:43:49.872Z,4.00
2018-08-06T03:46:18.390Z,4.37
2018-08-06T03:48:46.956Z,4.23
2018-08-06T03:51:15.497Z,3.73
2018-08-06T03:53:44.020Z,3.87
2018-08-06T03:56:12.539Z,4.00
2018-08-06T03:58:41.282Z,4.33
2018-08-06T04:01:09.745Z,3.93
2018-08-06T04:03:38.228Z,4.20
2018-08-06T04:06:07.139Z,4.10
2018-08-06T04:08:35.671Z,4.23
2018-08-06T04:11:04.108Z,4.00
2018-08-06T04:13:32.761Z,4.30
2018-08-06T04:16:01.290Z,4.40
2018-08-06T04:18:29.801Z,4.23
2018-08-06T04:20:58.324Z,3.90
2018-08-06T04:23:26.822Z,4.50
2018-08-06T04:25:55.057Z,4.17
2018-08-06T04:28:23.542Z,3.87
2018-08-06T04:30:52.006Z,3.90
2018-08-06T04:33:20.575Z,4.00
2018-08-06T04:35:49.097Z,4.50
2018-08-06T04:38:17.515Z,4.43
2018-08-06T04:40:45.989Z,4.40
2018-08-06T04:43:14.530Z,4.00
2018-08-06T04:45:43.057Z,3.97
2018-08-06T04:48:11.535Z,4.00
2018-08-06T04:50:39.798Z,4.53
2018-08-06T04:53:07.938Z,4.57
2018-08-06T04:55:36.572Z,4.80
2018-08-06T04:58:05.083Z,4.63
2018-08-06T05:00:33.296Z,4.70
2018-08-06T05:03:01.471Z,4.30
2018-08-06T05:05:29.993Z,4.53
2018-08-06T05:07:59.196Z,4.50
2018-08-06T05:10:27.680Z,4.17
2018-08-06T05:12:56.226Z,4.30
2018-08-06T05:15:24.687Z,4.27
2018-08-06T05:17:53.199Z,4.10
2018-08-06T05:20:21.835Z,4.00
2018-08-06T05:22:50.120Z,4.20
2018-08-06T05:25:18.640Z,4.70
2018-08-06T05:27:47.114Z,3.97
2018-08-06T05:30:15.588Z,4.30
2018-08-06T05:32:44.067Z,4.90
2018-08-06T05:35:12.532Z,4.60
2018-08-06T05:37:41.816Z,4.40
2018-08-06T05:40:10.297Z,4.40
2018-08-06T05:42:38.827Z,4.93
2018-08-06T05:45:07.703Z,4.20
2018-08-06T05:47:36.277Z,4.47
2018-08-06T05:50:07.244Z,4.30
2018-08-06T05:52:35.782Z,4.50
2018-08-06T05:55:04.809Z,4.40
2018-08-06T05:57:33.360Z,3.97
2018-08-06T06:00:01.873Z,4.40
2018-08-06T06:02:30.325Z,3.90
2018-08-06T06:04:59.918Z,4.40
2018-08-06T06:07:29.216Z,4.00
2018-08-06T06:09:57.696Z,3.73
2018-08-06T06:12:26.174Z,3.83
2018-08-06T06:14:54.659Z,3.80
2018-08-06T06:17:23.222Z,4.10
2018-08-06T06:19:51.874Z,4.27
2018-08-06T06:22:20.346Z,4.43
2018-08-06T06:24:48.613Z,3.73
2018-08-06T06:27:16.789Z,3.57
2018-08-06T06:29:45.302Z,4.23
2018-08-06T06:32:14.503Z,4.00
2018-08-06T06:34:43.014Z,3.63
2018-08-06T06:37:11.633Z,3.50
2018-08-06T06:39:40.112Z,3.80
2018-08-06T06:42:08.931Z,3.90
2018-08-06T06:44:37.427Z,3.90
2018-08-06T06:47:05.902Z,4.20
2018-08-06T06:49:34.537Z,4.00
2018-08-06T06:52:02.681Z,3.63
2018-08-06T06:54:31.295Z,3.43
2018-08-06T06:56:59.698Z,3.30
2018-08-06T06:59:28.188Z,3.47
2018-08-06T07:01:56.728Z,3.43
2018-08-06T07:04:25.237Z,3.63
2018-08-06T07:06:53.836Z,3.00
2018-08-06T07:09:22.297Z,3.30
2018-08-06T07:11:50.758Z,3.57
2018-08-06T07:14:19.309Z,3.57
2018-08-06T07:16:47.800Z,3.20
2018-08-06T07:19:16.299Z,3.57
2018-08-06T07:21:45.396Z,3.50
2018-08-06T07:24:14.390Z,3.73
2018-08-06T07:26:42.843Z,3.43
2018-08-06T07:29:11.044Z,3.43
2018-08-06T07:31:39.692Z,3.40
2018-08-06T07:34:08.242Z,3.17
2018-08-06T07:36:36.670Z,3.50
2018-08-06T07:39:08.184Z,3.10
2018-08-06T07:41:36.695Z,3.13
2018-08-06T07:44:05.233Z,3.47
2018-08-06T07:46:33.714Z,2.73
2018-08-06T07:49:02.248Z,3.40
2018-08-06T07:51:30.702Z,3.47
2018-08-06T07:53:59.822Z,3.20
2018-08-06T07:56:28.309Z,2.83
2018-08-06T07:58:56.509Z,3.10
2018-08-06T08:01:25.103Z,2.80
2018-08-06T08:03:53.692Z,2.80
2018-08-06T08:06:22.252Z,2.87
2018-08-06T08:08:50.378Z,2.57
2018-08-06T08:11:18.884Z,2.27
2018-08-06T08:13:47.408Z,2.20
2018-08-06T08:16:15.952Z,2.30
2018-08-06T08:18:44.129Z,2.07
2018-08-06T08:21:12.586Z,2.17
2018-08-06T08:23:41.571Z,2.20
2018-08-06T08:26:10.141Z,2.60
2018-08-06T08:28:39.081Z,2.27
2018-08-06T08:31:07.614Z,2.33
2018-08-06T08:33:36.130Z,2.03
2018-08-06T08:36:04.738Z,2.20
2018-08-06T08:38:33.319Z,2.57
2018-08-06T08:41:01.746Z,2.17
2018-08-06T08:43:30.276Z,2.20
2018-08-06T08:45:58.763Z,2.20
2018-08-06T08:48:27.231Z,2.80
2018-08-06T08:50:55.712Z,2.03
2018-08-06T08:53:24.132Z,2.23
2018-08-06T08:55:52.652Z,2.10
2018-08-06T08:58:21.165Z,2.10
2018-08-06T09:00:49.855Z,1.83
2018-08-06T09:03:18.391Z,2.63
2018-08-06T09:05:46.946Z,1.93
2018-08-06T09:08:16.069Z,1.90
2018-08-06T09:10:45.259Z,2.20
2018-08-06T09:13:13.724Z,2.20
2018-08-06T09:15:42.204Z,2.20
2018-08-06T09:18:10.758Z,2.00
2018-08-06T09:20:39.244Z,2.40
2018-08-06T09:23:08.277Z,2.37
2018-08-06T09:25:36.740Z,1.70
2018-08-06T09:28:05.877Z,2.30
2018-08-06T09:30:34.317Z,2.10
2018-08-06T09:33:02.980Z,2.13
2018-08-06T09:35:31.867Z,1.90
2018-08-06T09:38:00.317Z,2.00
2018-08-06T09:40:28.896Z,2.00
2018-08-06T09:42:57.416Z,2.40
2018-08-06T09:45:25.932Z,1.93
2018-08-06T09:47:54.988Z,1.80
2018-08-06T09:50:23.617Z,2.00
2018-08-06T09:52:52.927Z,2.07
2018-08-06T09:55:24.468Z,2.10
2018-08-06T09:57:53.220Z,2.00
2018-08-06T10:00:28.074Z,1.93
2018-08-06T10:02:57.781Z,2.10
2018-08-06T10:05:26.839Z,2.00
2018-08-06T10:07:55.320Z,2.33
2018-08-06T10:10:23.916Z,2.77
2018-08-06T10:12:52.357Z,2.60
2018-08-06T10:15:21.343Z,2.40
2018-08-06T10:17:51.209Z,2.30
2018-08-06T10:20:20.989Z,2.33
2018-08-06T10:22:49.630Z,2.10
2018-08-06T10:25:18.194Z,2.17
2018-08-06T10:27:47.414Z,2.50
2018-08-06T10:30:18.335Z,2.50
2018-08-06T10:32:46.899Z,2.00
2018-08-06T10:35:16.613Z,2.03
2018-08-06T10:37:45.325Z,2.00
2018-08-06T10:40:18.572Z,1.77
2018-08-06T10:42:47.764Z,2.27
2018-08-06T10:45:19.372Z,2.20
2018-08-06T10:47:48.857Z,2.20
2018-08-06T10:50:17.399Z,2.40
2018-08-06T10:52:46.011Z,1.83
2018-08-06T10:55:14.554Z,1.77
2018-08-06T10:57:44.048Z,2.30
2018-08-06T11:00:17.720Z,2.33
2018-08-06T11:02:46.541Z,2.10
2018-08-06T11:05:15.837Z,2.17
2018-08-06T11:07:44.380Z,2.53
2018-08-06T11:10:15.376Z,2.20
2018-08-06T11:12:44.067Z,2.10
2018-08-06T11:15:20.853Z,2.43
2018-08-06T11:17:49.368Z,2.57
2018-08-06T11:20:18.655Z,2.10
2018-08-06T11:22:47.218Z,2.20
2018-08-06T11:25:17.673Z,2.17
2018-08-06T11:27:46.468Z,2.20
2018-08-06T11:30:16.485Z,2.20
2018-08-06T11:32:45.508Z,2.20
2018-08-06T11:35:14.497Z,2.50
2018-08-06T11:37:43.140Z,2.67
2018-08-06T11:40:12.895Z,1.83
2018-08-06T11:42:42.682Z,2.10
2018-08-06T11:45:13.349Z,2.10
2018-08-06T11:47:41.829Z,2.20
2018-08-06T11:50:10.900Z,2.23
2018-08-06T11:52:39.392Z,2.10
2018-08-06T11:55:08.500Z,2.30
2018-08-06T11:57:36.760Z,2.40
2018-08-06T12:00:21.589Z,2.43
2018-08-06T12:02:50.078Z,2.30
2018-08-06T12:05:18.805Z,2.23
2018-08-06T12:07:54.153Z,2.10
2018-08-06T12:10:22.676Z,2.27
2018-08-06T12:12:51.970Z,1.90
2018-08-06T12:15:20.534Z,2.20
2018-08-06T12:17:49.239Z,2.10
2018-08-06T12:20:18.886Z,2.00
2018-08-06T12:22:48.804Z,5.10
2018-08-06T12:25:17.703Z,2.20
2018-08-06T12:27:46.863Z,2.37
2018-08-06T12:30:23.321Z,2.30
2018-08-06T12:32:52.923Z,2.07
2018-08-06T12:35:21.510Z,1.90
2018-08-06T12:37:50.210Z,2.20
2018-08-06T12:40:19.798Z,2.30
2018-08-06T12:42:48.785Z,2.20
2018-08-06T12:45:17.774Z,1.87
2018-08-06T12:47:46.784Z,2.23
2018-08-06T12:50:17.390Z,1.77
2018-08-06T12:52:46.286Z,2.40
2018-08-06T12:55:16.161Z,2.33
2018-08-06T12:57:45.152Z,1.70
2018-08-06T13:00:19.468Z,1.70
2018-08-06T13:02:48.674Z,1.93
2018-08-06T13:05:17.713Z,3.30
2018-08-06T13:07:46.305Z,2.40
2018-08-06T13:10:15.014Z,2.20
2018-08-06T13:12:44.523Z,2.53
2018-08-06T13:15:14.137Z,2.30
2018-08-06T13:17:42.695Z,2.30
2018-08-06T13:20:11.194Z,2.17
2018-08-06T13:22:39.677Z,2.43
2018-08-06T13:25:09.759Z,2.10
2018-08-06T13:27:38.224Z,2.20
2018-08-06T13:30:11.285Z,1.97
2018-08-06T13:32:39.786Z,2.00
2018-08-06T13:35:08.405Z,2.17
2018-08-06T13:37:37.169Z,2.00
2018-08-06T13:40:06.634Z,2.00
2018-08-06T13:42:35.154Z,2.03
2018-08-06T13:45:04.777Z,2.23
2018-08-06T13:47:33.291Z,2.20
2018-08-06T13:50:01.744Z,2.30
2018-08-06T13:52:29.885Z,2.00
2018-08-06T13:54:58.317Z,2.57
2018-08-06T13:57:26.848Z,2.20
2018-08-06T13:59:55.329Z,2.00
2018-08-06T14:02:24.319Z,2.00
2018-08-06T14:04:52.747Z,1.70
2018-08-06T14:07:21.354Z,1.80
2018-08-06T14:09:50.796Z,2.13
2018-08-06T14:12:19.403Z,2.30
2018-08-06T14:14:51.950Z,2.20
2018-08-06T14:17:20.430Z,2.13
2018-08-06T14:19:48.895Z,2.20
2018-08-06T14:22:17.383Z,2.27
2018-08-06T14:24:45.901Z,2.00
2018-08-06T14:27:14.373Z,1.80
2018-08-06T14:29:43.855Z,2.10
2018-08-06T14:32:12.480Z,2.00
2018-08-06T14:34:40.934Z,2.03
2018-08-06T14:37:09.485Z,2.07
2018-08-06T14:39:37.915Z,2.13
2018-08-06T14:42:06.616Z,2.00
2018-08-06T14:44:35.091Z,2.10
2018-08-06T14:47:04.210Z,1.80
2018-08-06T14:49:32.864Z,2.40
2018-08-06T14:52:01.491Z,2.20
2018-08-06T14:54:29.991Z,2.03
2018-08-06T14:56:58.468Z,2.60
2018-08-06T14:59:27.504Z,2.37
2018-08-06T15:01:55.955Z,2.17
2018-08-06T15:04:24.492Z,2.10
2018-08-06T15:06:52.953Z,2.13
2018-08-06T15:09:21.552Z,1.97
2018-08-06T15:11:49.945Z,2.50
2018-08-06T15:14:18.522Z,2.47
2018-08-06T15:16:46.980Z,2.50
2018-08-06T15:19:15.464Z,2.03
2018-08-06T15:21:43.912Z,2.20
2018-08-06T15:24:12.480Z,2.10
2018-08-06T15:26:40.938Z,2.10
2018-08-06T15:29:09.406Z,1.97
2018-08-06T15:31:37.987Z,2.00
2018-08-06T15:34:06.832Z,2.50
2018-08-06T15:36:35.383Z,2.23
2018-08-06T15:39:06.565Z,2.57
2018-08-06T15:41:35.043Z,2.17
2018-08-06T15:44:03.505Z,1.83
2018-08-06T15:46:31.677Z,2.47
2018-08-06T15:49:00.260Z,2.27
2018-08-06T15:51:28.757Z,3.03
2018-08-06T15:53:57.356Z,2.50
2018-08-06T15:56:25.852Z,2.30
2018-08-06T15:58:54.378Z,2.50
2018-08-06T16:01:22.920Z,2.37
2018-08-06T16:03:51.521Z,2.20
2018-08-06T16:06:20.016Z,2.07
2018-08-06T16:08:48.471Z,2.30
2018-08-06T16:11:16.924Z,2.43
2018-08-06T16:13:45.384Z,2.37
2018-08-06T16:16:13.887Z,2.30
2018-08-06T16:18:42.393Z,1.97
2018-08-06T16:21:10.896Z,2.17
2018-08-06T16:23:40.364Z,2.30
2018-08-06T16:26:09.621Z,2.10
2018-08-06T16:28:38.280Z,2.27
2018-08-06T16:31:06.949Z,2.50
2018-08-06T16:33:35.414Z,2.27
2018-08-06T16:36:03.905Z,2.60
2018-08-06T16:38:32.409Z,1.90
2018-08-06T16:41:00.851Z,2.00
2018-08-06T16:43:29.365Z,2.20
2018-08-06T16:45:57.882Z,2.10
2018-08-06T16:48:26.410Z,2.17
2018-08-06T16:50:54.844Z,2.10
2018-08-06T16:53:23.322Z,2.20
2018-08-06T16:55:51.777Z,2.43
2018-08-06T16:58:20.329Z,2.13
2018-08-06T17:00:49.019Z,2.20
2018-08-06T17:03:17.771Z,2.20
2018-08-06T17:05:46.209Z,2.00
2018-08-06T17:08:14.693Z,1.87
2018-08-06T17:10:43.318Z,2.00
2018-08-06T17:13:11.891Z,1.93
2018-08-06T17:15:40.343Z,2.10
2018-08-06T17:18:09.160Z,2.07
2018-08-06T17:20:37.618Z,1.87
2018-08-06T17:23:06.175Z,2.10
2018-08-06T17:25:34.812Z,2.20
2018-08-06T17:28:03.338Z,2.30
2018-08-06T17:30:31.958Z,2.30
2018-08-06T17:33:00.406Z,2.00
2018-08-06T17:35:28.977Z,2.37
2018-08-06T17:37:57.584Z,2.20
2018-08-06T17:40:26.103Z,2.27
2018-08-06T17:42:54.731Z,2.30
2018-08-06T17:45:24.109Z,1.90
2018-08-06T17:47:52.598Z,2.13
2018-08-06T17:50:22.313Z,1.90
2018-08-06T17:52:51.706Z,2.60
2018-08-06T17:55:21.081Z,2.10
2018-08-06T17:57:50.057Z,2.47
2018-08-06T18:00:19.087Z,2.40
2018-08-06T18:02:47.960Z,2.13
2018-08-06T18:05:17.229Z,2.67
2018-08-06T18:07:45.504Z,2.37
2018-08-06T18:10:15.310Z,2.47
2018-08-06T18:12:44.576Z,2.77
2018-08-06T18:15:13.394Z,2.47
2018-08-06T18:17:41.866Z,2.20
2018-08-06T18:20:14.073Z,2.40
2018-08-06T18:22:42.596Z,2.57
2018-08-06T18:25:12.815Z,2.40
2018-08-06T18:27:41.706Z,2.20
2018-08-06T18:30:13.779Z,2.30
2018-08-06T18:32:42.593Z,2.20
2018-08-06T18:35:12.968Z,2.37
2018-08-06T18:37:41.566Z,2.17
2018-08-06T18:40:10.897Z,2.30
2018-08-06T18:42:39.978Z,2.20
2018-08-06T18:45:12.468Z,2.00
2018-08-06T18:47:42.050Z,2.30
2018-08-06T18:50:11.989Z,2.70
2018-08-06T18:52:41.009Z,2.43
2018-08-06T18:55:12.178Z,2.20
2018-08-06T18:57:41.234Z,2.20
2018-08-06T19:00:12.881Z,2.63
2018-08-06T19:02:41.431Z,2.40
2018-08-06T19:05:10.051Z,2.37
2018-08-06T19:07:38.523Z,2.30
2018-08-06T19:10:07.489Z,2.53
2018-08-06T19:12:41.045Z,2.13
2018-08-06T19:15:09.669Z,2.53
2018-08-06T19:17:43.503Z,2.23
2018-08-06T19:20:11.902Z,2.47
2018-08-06T19:22:40.074Z,2.60
2018-08-06T19:25:13.821Z,2.30
2018-08-06T19:27:42.310Z,2.63
2018-08-06T19:30:10.893Z,2.53
2018-08-06T19:32:40.187Z,2.63
2018-08-06T19:35:08.433Z,2.53
2018-08-06T19:37:42.045Z,2.30
2018-08-06T19:40:11.004Z,2.00
2018-08-06T19:42:44.867Z,2.50
2018-08-06T19:45:13.619Z,2.37
2018-08-06T19:47:42.684Z,2.33
2018-08-06T19:50:16.436Z,2.23
2018-08-06T19:52:45.100Z,2.50
2018-08-06T19:55:18.651Z,2.80
2018-08-06T19:57:46.858Z,2.60
2018-08-06T20:00:15.340Z,2.37
2018-08-06T20:02:43.985Z,2.50
2018-08-06T20:05:12.308Z,2.47
2018-08-06T20:07:40.815Z,2.40
2018-08-06T20:10:11.611Z,2.53
2018-08-06T20:12:40.554Z,2.60
2018-08-06T20:15:10.335Z,2.83
2018-08-06T20:17:38.466Z,2.47
2018-08-06T20:20:07.104Z,2.67
2018-08-06T20:22:35.268Z,2.80
2018-08-06T20:25:04.021Z,2.30
2018-08-06T20:27:32.304Z,3.00
2018-08-06T20:30:01.314Z,2.57
2018-08-06T20:32:29.507Z,2.63
2018-08-06T20:34:57.643Z,2.70
2018-08-06T20:37:25.808Z,2.77
2018-08-06T20:39:55.310Z,2.90
2018-08-06T20:42:23.455Z,2.67
2018-08-06T20:44:51.669Z,2.30
2018-08-06T20:47:20.558Z,2.50
2018-08-06T20:49:48.741Z,2.57
2018-08-06T20:52:16.936Z,2.63
2018-08-06T20:54:45.059Z,2.73
2018-08-06T20:57:13.229Z,2.20
2018-08-06T20:59:41.633Z,2.57
2018-08-06T21:02:09.852Z,3.00
2018-08-06T21:04:38.355Z,2.87
2018-08-06T21:07:06.547Z,3.00
2018-08-06T21:09:34.762Z,3.20
2018-08-06T21:12:03.588Z,3.20
2018-08-06T21:14:31.782Z,3.60
2018-08-06T21:17:00.028Z,3.77
2018-08-06T21:19:28.188Z,3.40
2018-08-06T21:21:56.432Z,3.57
2018-08-06T21:24:24.616Z,3.73
2018-08-06T21:26:52.872Z,3.60
2018-08-06T21:29:21.193Z,3.23
2018-08-06T21:31:49.466Z,3.00
2018-08-06T21:34:17.626Z,3.20
2018-08-06T21:36:45.921Z,3.30
2018-08-06T21:39:14.158Z,3.40
2018-08-06T21:41:42.290Z,3.77
2018-08-06T21:44:10.476Z,3.37
2018-08-06T21:46:38.725Z,3.70
2018-08-06T21:49:06.845Z,3.80
2018-08-06T21:51:35.062Z,3.77
2018-08-06T21:54:03.290Z,3.30
2018-08-06T21:56:31.571Z,3.60
2018-08-06T21:58:59.717Z,3.47
2018-08-06T22:01:27.999Z,3.63
2018-08-06T22:03:56.245Z,3.53
2018-08-06T22:06:24.383Z,3.73
2018-08-06T22:08:52.521Z,3.60
2018-08-06T22:11:20.666Z,3.40
2018-08-06T22:13:48.923Z,3.53
2018-08-06T22:16:17.241Z,3.40
2018-08-06T22:18:45.491Z,3.73
2018-08-06T22:21:13.645Z,3.43
2018-08-06T22:23:41.877Z,3.73
2018-08-06T22:26:10.272Z,3.77
2018-08-06T22:28:38.614Z,3.67
2018-08-06T22:31:06.967Z,3.70
2018-08-06T22:33:35.574Z,4.30
2018-08-06T22:36:03.849Z,4.30
2018-08-06T22:38:32.356Z,4.10
2018-08-06T22:41:00.512Z,4.00
2018-08-06T22:43:28.706Z,3.93
2018-08-06T22:45:56.829Z,3.93
2018-08-06T22:48:25.006Z,3.93
2018-08-06T22:50:53.878Z,4.07
2018-08-06T22:53:22.038Z,4.40
2018-08-06T22:55:55.660Z,4.70
2018-08-06T22:58:23.844Z,3.93
2018-08-06T23:00:52.018Z,4.20
2018-08-06T23:03:20.170Z,4.27
2018-08-06T23:05:48.448Z,4.90
2018-08-06T23:08:16.607Z,4.50
2018-08-06T23:10:45.852Z,4.50
2018-08-06T23:13:14.336Z,4.13
2018-08-06T23:15:42.512Z,4.27
2018-08-06T23:18:11.363Z,4.13
2018-08-06T23:20:39.515Z,4.40
2018-08-06T23:23:07.715Z,4.13
2018-08-06T23:25:35.888Z,4.20
2018-08-06T23:28:04.036Z,4.87
2018-08-06T23:30:32.254Z,4.27
2018-08-06T23:33:00.435Z,4.20
2018-08-06T23:35:28.675Z,4.00
2018-08-06T23:37:56.849Z,4.60
2018-08-06T23:40:25.014Z,4.53
2018-08-06T23:42:53.799Z,4.60
2018-08-06T23:45:21.989Z,4.60
2018-08-06T23:47:50.520Z,4.67
2018-08-06T23:50:18.727Z,4.53
2018-08-06T23:52:46.958Z,4.70
2018-08-06T23:55:16.627Z,4.90
2018-08-06T23:57:44.853Z,4.87
